Time;durP1;ratioP1;P1;durP2;ratioP2;P2;SDS_P1;SDS_P2;PMS_P1;PMS_P2;Temp;Humidity;BMP_temperature;BMP_pressure;BME280_temperature;BME280_humidity;BME280_pressure;Samples;Min_cycle;Max_cycle;Signal;HPM_P1;HPM_P2
2022/08/14 00:00:10;;;;;;;34.15;23.63;;;;;;;18.32;71.89;99637.50;5044883;28;20478;-60
2022/08/14 00:02:38;;;;;;;43.28;23.10;;;;;;;18.28;72.39;99636.44;5068725;28;20401;-60
2022/08/14 00:05:06;;;;;;;33.75;21.42;;;;;;;18.24;72.42;99629.25;5053202;28;20135;-59
2022/08/14 00:07:34;;;;;;;34.78;21.92;;;;;;;18.24;72.23;99631.94;5041311;28;20085;-59
2022/08/14 00:10:01;;;;;;;32.00;21.05;;;;;;;18.22;72.67;99629.53;5073418;28;20477;-60
2022/08/14 00:12:27;;;;;;;39.42;21.80;;;;;;;18.17;72.47;99621.50;5074071;28;20045;-60
2022/08/14 00:14:52;;;;;;;33.45;19.95;;;;;;;18.19;72.79;99623.94;5066892;28;20032;-62
2022/08/14 00:17:18;;;;;;;33.28;20.88;;;;;;;18.19;72.57;99626.63;5035852;28;20110;-61
2022/08/14 00:19:44;;;;;;;40.13;20.48;;;;;;;18.16;72.60;99619.94;5053614;28;20127;-61
2022/08/14 00:22:11;;;;;;;36.08;18.75;;;;;;;18.14;72.89;99625.56;5054731;28;20056;-60
2022/08/14 00:24:36;;;;;;;43.75;19.77;;;;;;;18.11;72.97;99630.69;5035624;28;20045;-61
2022/08/14 00:27:02;;;;;;;31.13;19.30;;;;;;;18.08;73.27;99615.16;5064852;28;20041;-60
2022/08/14 00:29:30;;;;;;;29.80;17.90;;;;;;;18.11;73.03;99628.00;5071790;28;20044;-60
2022/08/14 00:31:56;;;;;;;29.92;18.42;;;;;;;18.06;73.08;99614.63;5069679;28;20216;-61
2022/08/14 00:34:21;;;;;;;37.35;18.67;;;;;;;18.13;73.19;99623.16;5071671;28;20463;-59
2022/08/14 00:36:47;;;;;;;28.30;17.70;;;;;;;18.14;72.65;99628.25;5035987;28;20033;-60
2022/08/14 00:39:14;;;;;;;30.90;17.63;;;;;;;18.10;72.53;99615.69;5051138;28;20039;-60
2022/08/14 00:41:40;;;;;;;34.25;18.30;;;;;;;18.16;72.63;99631.44;5070880;28;20076;-59
2022/08/14 00:44:06;;;;;;;30.55;18.27;;;;;;;18.19;72.32;99629.28;5062646;28;20072;-61
2022/08/14 00:46:31;;;;;;;33.22;17.83;;;;;;;18.18;72.45;99625.81;5066199;28;20071;-58
2022/08/14 00:48:57;;;;;;;35.42;18.40;;;;;;;18.16;72.23;99631.44;5055205;28;20474;-59
2022/08/14 00:51:23;;;;;;;37.35;17.25;;;;;;;18.15;72.27;99627.19;5053259;28;20091;-59
2022/08/14 00:53:49;;;;;;;28.17;16.40;;;;;;;18.13;72.46;99625.84;5034812;28;20041;-60
2022/08/14 00:56:16;;;;;;;34.80;17.35;;;;;;;18.15;72.03;99626.38;5068852;28;20052;-60
2022/08/14 00:58:41;;;;;;;27.20;17.17;;;;;;;18.17;72.01;99626.88;5073034;28;20037;-61
2022/08/14 01:01:10;;;;;;;23.85;16.58;;;;;;;18.17;71.86;99619.63;5052981;28;20040;-59
2022/08/14 01:03:38;;;;;;;26.83;17.65;;;;;;;18.17;71.52;99622.31;5053071;28;20567;-60
2022/08/14 01:06:09;;;;;;;25.48;16.85;;;;;;;18.17;71.43;99624.19;5057282;28;20091;-58
2022/08/14 01:08:37;;;;;;;31.10;17.42;;;;;;;18.18;71.37;99623.13;5052680;28;20048;-60
2022/08/14 01:11:04;;;;;;;30.13;17.83;;;;;;;18.15;71.79;99621.81;5052634;28;20040;-60
2022/08/14 01:13:35;;;;;;;29.77;16.60;;;;;;;18.10;72.32;99627.22;5051274;28;20049;-62
2022/08/14 01:16:04;;;;;;;33.38;17.88;;;;;;;18.07;72.40;99629.66;5058995;28;20037;-60
2022/08/14 01:21:38;;;;;;;31.02;18.55;;;;;;;17.99;72.36;99636.41;5056820;28;20170;-59
2022/08/14 01:24:09;;;;;;;31.88;18.70;;;;;;;17.96;72.67;99628.94;5057306;28;20497;-60
2022/08/14 01:26:35;;;;;;;33.25;18.52;;;;;;;17.90;73.25;99638.09;5070576;28;20153;-60
2022/08/14 01:29:03;;;;;;;25.63;17.98;;;;;;;17.86;73.44;99634.38;5050136;28;20171;-59
2022/08/14 01:31:31;;;;;;;36.22;19.92;;;;;;;17.85;73.69;99638.13;5062938;28;20128;-58
2022/08/14 01:34:00;;;;;;;32.20;20.20;;;;;;;17.82;73.63;99636.81;5070140;28;20041;-59
2022/08/14 01:36:27;;;;;;;30.27;20.15;;;;;;;17.80;73.75;99641.66;5053645;28;20398;-61
2022/08/14 01:38:57;;;;;;;31.02;19.85;;;;;;;17.77;73.97;99639.50;5067717;28;20245;-60
2022/08/14 01:41:25;;;;;;;32.80;20.00;;;;;;;17.73;74.08;99643.81;5053720;28;20036;-60
2022/08/14 01:44:00;;;;;;;31.40;20.13;;;;;;;17.70;74.30;99644.38;5050157;28;20045;-60
2022/08/14 01:46:29;;;;;;;34.30;23.25;;;;;;;17.75;73.06;99641.66;5034473;28;20517;-60
2022/08/14 01:48:56;;;;;;;36.90;21.60;;;;;;;17.78;73.75;99641.13;5054263;28;20460;-59
2022/08/14 01:51:23;;;;;;;30.23;20.27;;;;;;;17.79;73.34;99644.59;5071799;28;20528;-60
2022/08/14 01:53:53;;;;;;;32.50;20.38;;;;;;;17.77;73.29;99639.50;5051682;28;20036;-59
2022/08/14 01:56:19;;;;;;;33.05;20.80;;;;;;;17.80;72.88;99646.22;5050671;28;20050;-59
2022/08/14 01:58:48;;;;;;;32.63;20.40;;;;;;;17.82;72.30;99641.38;5057437;28;20040;-60
2022/08/14 02:01:18;;;;;;;30.80;20.58;;;;;;;17.86;72.29;99655.84;5068062;28;20174;-59
2022/08/14 02:03:44;;;;;;;30.92;21.42;;;;;;;17.87;72.13;99646.72;5071067;28;20119;-59
2022/08/14 02:06:11;;;;;;;34.90;20.48;;;;;;;17.90;71.68;99646.94;5056051;28;20600;-61
2022/08/14 02:08:39;;;;;;;31.27;20.02;;;;;;;17.92;71.38;99652.03;5051534;28;20049;-60
2022/08/14 02:11:23;;;;;;;28.17;17.88;;;;;;;17.95;70.59;99648.78;5037529;28;20111;-59
2022/08/14 02:14:11;;;;;;;31.00;17.20;;;;;;;18.06;70.03;99649.50;5049707;28;20111;-59
2022/08/14 02:16:39;;;;;;;31.27;17.75;;;;;;;18.17;68.96;99646.47;5050991;28;20450;-60
2022/08/14 02:19:08;;;;;;;26.92;17.23;;;;;;;18.26;68.77;99648.53;5049646;28;20037;-59
2022/08/14 02:21:35;;;;;;;26.98;16.00;;;;;;;18.28;69.17;99646.38;5051485;28;20044;-60
2022/08/14 02:24:01;;;;;;;28.73;17.58;;;;;;;18.35;68.16;99655.72;5052130;28;20055;-59
2022/08/14 02:26:31;;;;;;;27.42;16.73;;;;;;;18.41;67.52;99651.09;5052418;28;20051;-61
2022/08/14 02:29:04;;;;;;;24.33;14.68;;;;;;;18.49;66.31;99652.38;5036393;28;20036;-62
2022/08/14 02:31:32;;;;;;;21.02;15.30;;;;;;;18.57;65.97;99657.91;5068774;28;20040;-62
2022/08/14 02:34:17;;;;;;;18.88;13.88;;;;;;;18.69;65.12;99662.91;5059723;28;20036;-61
2022/08/14 02:36:44;;;;;;;18.73;13.25;;;;;;;18.86;64.93;99651.75;5058319;28;20048;-60
2022/08/14 02:39:12;;;;;;;17.13;12.85;;;;;;;19.19;63.23;99662.66;5051184;28;20080;-59
2022/08/14 02:41:39;;;;;;;16.33;12.90;;;;;;;19.39;62.77;99657.03;5056327;28;20037;-60
2022/08/14 02:44:08;;;;;;;21.15;13.60;;;;;;;19.60;62.17;99662.13;5052616;28;20085;-60
2022/08/14 02:46:34;;;;;;;17.50;13.73;;;;;;;19.83;61.75;99657.81;5070905;28;20079;-62
2022/08/14 02:49:00;;;;;;;17.73;12.85;;;;;;;20.09;60.79;99661.69;5066721;28;20081;-60
2022/08/14 02:51:28;;;;;;;21.20;15.07;;;;;;;20.33;60.19;99656.19;5058100;28;20098;-60
2022/08/14 02:53:55;;;;;;;16.50;12.90;;;;;;;20.58;59.66;99664.94;5058275;28;20123;-60
2022/08/14 02:56:20;;;;;;;21.17;13.98;;;;;;;20.77;59.71;99667.56;5068932;28;20044;-59
2022/08/14 02:58:48;;;;;;;21.98;14.25;;;;;;;20.90;59.81;99669.47;5052760;28;20099;-60
2022/08/14 03:01:18;;;;;;;22.52;15.07;;;;;;;20.84;59.68;99668.75;5051568;28;20091;-60
2022/08/14 03:03:44;;;;;;;;;;;;;;;20.83;60.56;99664.47;5055518;28;20053;-59
2022/08/14 03:06:12;;;;;;;24.83;15.13;;;;;;;21.00;60.07;99673.84;5035066;28;20420;-59
2022/08/14 03:08:39;;;;;;;16.98;13.82;;;;;;;21.19;59.36;99671.84;5034833;28;20502;-59
2022/08/14 03:11:08;;;;;;;23.92;15.65;;;;;;;21.48;59.06;99670.75;5054381;28;20033;-59
2022/08/14 03:13:35;;;;;;;22.38;16.80;;;;;;;21.61;60.45;99669.13;5066255;28;20123;-58
2022/08/14 03:16:07;;;;;;;19.33;16.27;;;;;;;21.66;59.84;99674.41;5033657;28;20490;-59
2022/08/14 03:18:32;;;;;;;23.17;16.52;;;;;;;21.72;60.27;99686.69;5034833;28;20299;-60
2022/08/14 03:21:00;;;;;;;20.20;16.58;;;;;;;21.92;59.67;99674.63;5054104;28;20048;-61
2022/08/14 03:23:26;;;;;;;24.95;16.35;;;;;;;22.00;58.93;99669.28;5055926;28;20125;-58
2022/08/14 03:25:52;;;;;;;25.55;15.82;;;;;;;22.20;58.03;99675.31;5038020;28;20056;-60
2022/08/14 03:28:18;;;;;;;26.23;16.25;;;;;;;22.36;57.25;99668.44;5055744;28;20048;-59
2022/08/14 03:30:44;;;;;;;18.85;15.20;;;;;;;22.55;56.06;99681.72;5073092;28;20041;-62
2022/08/14 03:33:11;;;;;;;18.60;15.00;;;;;;;22.68;56.13;99677.38;5039974;28;20097;-59
2022/08/14 03:35:40;;;;;;;22.10;15.77;;;;;;;22.85;56.55;99677.44;5048429;28;20037;-59
2022/08/14 03:38:11;;;;;;;21.98;16.05;;;;;;;23.01;56.10;99674.34;5073435;28;20052;-60
2022/08/14 03:40:40;;;;;;;20.75;14.32;;;;;;;22.96;55.28;99677.19;5073921;28;20504;-60
2022/08/14 03:43:07;;;;;;;18.15;15.05;;;;;;;22.91;55.12;99675.38;5054464;28;20037;-59
2022/08/14 03:45:37;;;;;;;24.23;15.45;;;;;;;23.07;55.36;99681.19;5062616;28;20056;-59
2022/08/14 03:48:18;;;;;;;18.25;14.23;;;;;;;23.11;53.87;99671.34;5061803;28;20049;-59
2022/08/14 03:50:50;;;;;;;18.92;14.85;;;;;;;23.13;54.57;99675.31;5052897;28;20053;-59
2022/08/14 03:53:18;;;;;;;21.35;14.65;;;;;;;23.14;53.82;99678.81;5059305;28;20041;-59
2022/08/14 03:55:45;;;;;;;18.27;14.18;;;;;;;23.15;53.29;99677.72;5037238;28;20056;-60
2022/08/14 03:58:11;;;;;;;20.25;14.30;;;;;;;23.23;53.36;99676.16;5073988;28;20052;-59
2022/08/14 04:00:38;;;;;;;15.55;12.93;;;;;;;23.37;52.92;99670.63;5072420;28;20041;-61
2022/08/14 04:03:06;;;;;;;16.60;13.50;;;;;;;23.55;51.43;99674.94;5073522;28;20473;-58
2022/08/14 04:05:33;;;;;;;16.67;13.00;;;;;;;23.60;50.82;99666.66;5059042;28;20533;-61
2022/08/14 04:07:59;;;;;;;22.42;13.20;;;;;;;23.68;51.00;99667.75;5070074;28;20052;-59
2022/08/14 04:10:25;;;;;;;18.13;11.95;;;;;;;23.84;50.11;99671.63;5055919;28;20620;-59
2022/08/14 04:12:51;;;;;;;25.58;12.85;;;;;;;24.00;50.30;99671.94;5073562;28;20069;-60
2022/08/14 04:15:20;;;;;;;16.73;11.43;;;;;;;24.12;49.35;99672.09;5073296;28;20410;-61
2022/08/14 04:17:46;;;;;;;14.40;11.27;;;;;;;24.23;48.86;99676.03;5063675;28;20110;-60
2022/08/14 04:20:11;;;;;;;16.98;11.52;;;;;;;24.37;48.60;99675.09;5055009;28;20041;-60
2022/08/14 04:22:42;;;;;;;14.30;11.25;;;;;;;24.47;48.41;99672.88;5057038;28;20052;-60
2022/08/14 04:25:09;;;;;;;15.85;11.63;;;;;;;24.58;48.30;99675.22;5063803;28;20039;-60
2022/08/14 04:27:35;;;;;;;15.80;11.38;;;;;;;24.67;48.17;99678.69;5073877;28;20044;-60
2022/08/14 04:30:04;;;;;;;19.58;12.00;;;;;;;24.70;48.19;99678.81;5072963;28;20041;-60
2022/08/14 04:32:32;;;;;;;17.48;11.57;;;;;;;24.78;47.92;99674.50;5073680;28;20075;-60
2022/08/14 04:34:59;;;;;;;22.90;11.85;;;;;;;24.94;48.03;99677.44;5060008;28;20048;-60
2022/08/14 04:45:40;;;;;;;23.25;12.60;;;;;;;25.59;46.36;99672.66;5055703;28;20037;-60
2022/08/14 04:48:14;;;;;;;23.58;12.60;;;;;;;25.63;46.26;99680.94;5072934;28;20117;-60
2022/08/14 04:50:59;;;;;;;23.90;11.95;;;;;;;25.50;46.49;99672.72;5053452;28;20510;-59
2022/08/14 04:53:27;;;;;;;31.92;11.88;;;;;;;25.43;46.80;99674.34;5007974;28;20514;-60
2022/08/14 04:55:54;;;;;;;26.30;12.00;;;;;;;25.36;47.12;99672.16;5033359;28;20498;-59
2022/08/14 04:58:28;;;;;;;21.77;11.50;;;;;;;25.35;47.11;99671.38;5034287;28;20564;-60
2022/08/14 05:00:55;;;;;;;27.27;11.63;;;;;;;25.32;47.36;99674.72;5066779;28;20381;-59
2022/08/14 05:03:25;;;;;;;20.48;12.00;;;;;;;25.23;47.33;99668.56;5045327;28;20437;-59
2022/08/14 05:05:53;;;;;;;22.20;12.05;;;;;;;25.24;47.81;99678.31;5053011;28;20043;-60
2022/08/14 05:08:19;;;;;;;18.35;11.27;;;;;;;25.24;47.75;99675.59;5053124;28;20067;-60
2022/08/14 05:10:50;;;;;;;19.17;11.40;;;;;;;25.16;47.36;99668.28;5053258;28;20474;-61
2022/08/14 05:13:22;;;;;;;18.88;11.20;;;;;;;25.14;47.85;99675.97;5035655;28;20064;-60
2022/08/14 05:15:49;;;;;;;16.38;10.95;;;;;;;25.07;47.78;99668.31;5052573;28;20155;-59
2022/08/14 05:18:18;;;;;;;17.75;11.15;;;;;;;24.96;48.48;99674.44;5053021;28;20053;-60
2022/08/14 05:20:46;;;;;;;19.25;10.50;;;;;;;24.82;48.50;99667.31;5052626;28;20511;-60
2022/08/14 05:23:13;;;;;;;15.95;10.40;;;;;;;24.76;49.35;99670.53;5052899;28;20052;-61
2022/08/14 05:25:40;;;;;;;17.63;10.25;;;;;;;24.69;49.29;99671.81;5051770;28;20051;-61
2022/08/14 05:28:10;;;;;;;13.82;9.43;;;;;;;24.56;49.77;99674.72;5034715;28;20052;-59
2022/08/14 05:30:37;;;;;;;14.27;8.88;;;;;;;24.50;49.64;99667.91;5052585;28;20036;-60
2022/08/14 05:33:04;;;;;;;18.13;9.88;;;;;;;24.47;50.11;99670.16;5052718;28;20044;-60
2022/08/14 05:35:31;;;;;;;17.70;9.73;;;;;;;24.51;50.07;99664.88;5034402;28;20128;-60
2022/08/14 05:37:58;;;;;;;16.45;9.07;;;;;;;24.53;49.71;99675.38;5034211;28;20080;-60
2022/08/14 05:40:24;;;;;;;16.63;9.73;;;;;;;24.49;49.75;99664.41;5052142;28;20124;-59
2022/08/14 05:42:50;;;;;;;20.02;9.32;;;;;;;24.51;49.36;99667.59;5052167;28;20140;-59
2022/08/14 05:45:16;;;;;;;15.32;8.80;;;;;;;24.53;49.09;99665.34;5052100;28;20029;-62
2022/08/14 05:47:42;;;;;;;13.10;8.55;;;;;;;24.52;49.02;99663.75;5034120;28;20052;-60
2022/08/14 05:50:12;;;;;;;16.05;8.52;;;;;;;24.58;49.52;99662.44;5059271;28;20053;-58
2022/08/14 05:52:38;;;;;;;16.20;8.30;;;;;;;24.67;49.51;99667.84;5070342;28;20046;-60
2022/08/14 05:55:07;;;;;;;13.43;8.63;;;;;;;24.66;49.04;99667.06;5071252;28;20041;-60
2022/08/14 05:57:32;;;;;;;18.60;8.50;;;;;;;24.72;48.41;99656.81;5052150;28;20049;-59
2022/08/14 05:59:58;;;;;;;12.93;8.18;;;;;;;24.74;48.35;99661.91;5051912;28;20471;-60
2022/08/14 06:02:24;;;;;;;11.77;7.68;;;;;;;24.82;48.14;99658.38;5052853;28;20063;-59
2022/08/14 06:04:49;;;;;;;19.20;8.18;;;;;;;24.86;48.38;99664.75;5051585;28;20041;-60
2022/08/14 06:07:15;;;;;;;13.20;7.57;;;;;;;24.90;48.05;99660.25;5068588;28;20045;-61
2022/08/14 06:09:41;;;;;;;14.23;7.72;;;;;;;24.88;47.14;99660.59;5071501;28;20410;-60
2022/08/14 06:12:10;;;;;;;11.90;7.15;;;;;;;24.91;46.82;99659.94;5056702;28;20046;-60
2022/08/14 06:14:36;;;;;;;9.90;7.65;;;;;;;24.95;46.91;99662.00;5050064;28;20045;-60
2022/08/14 06:17:02;;;;;;;14.05;7.30;;;;;;;25.00;47.18;99654.47;5051895;28;20183;-60
2022/08/14 06:19:28;;;;;;;13.45;7.20;;;;;;;25.00;46.71;99657.19;5051537;28;20041;-61
2022/08/14 06:21:53;;;;;;;11.38;7.57;;;;;;;25.02;46.83;99656.84;5065350;28;20045;-61
2022/08/14 06:24:19;;;;;;;13.95;6.55;;;;;;;25.10;46.39;99653.31;5070988;28;20066;-62
2022/08/14 06:26:46;;;;;;;11.10;6.30;;;;;;;25.15;45.83;99659.38;5071086;28;20048;-61
2022/08/14 06:29:11;;;;;;;15.20;6.60;;;;;;;25.20;45.59;99650.22;5070919;28;20520;-60
2022/08/14 06:31:37;;;;;;;10.70;6.10;;;;;;;25.18;44.89;99654.38;5069523;28;20127;-62
2022/08/14 06:34:03;;;;;;;13.50;5.90;;;;;;;25.22;45.17;99647.19;5063687;28;20041;-60
2022/08/14 06:36:28;;;;;;;10.38;6.10;;;;;;;25.22;44.93;99648.00;5032403;28;20395;-59
2022/08/14 06:38:55;;;;;;;6.75;5.82;;;;;;;25.22;44.68;99650.72;5051946;28;20399;-60
2022/08/14 06:41:22;;;;;;;12.15;6.22;;;;;;;25.32;44.66;99654.94;5030088;28;20041;-60
2022/08/14 06:43:48;;;;;;;12.30;5.78;;;;;;;25.33;44.79;99651.91;5046583;28;20045;-60
2022/08/14 06:46:13;;;;;;;6.95;5.25;;;;;;;25.36;44.05;99645.03;5061384;28;20032;-59
2022/08/14 06:48:39;;;;;;;8.68;5.32;;;;;;;25.44;43.91;99649.59;5069270;28;20416;-61
2022/08/14 06:51:05;;;;;;;7.28;5.30;;;;;;;25.43;43.65;99650.72;5070881;28;20044;-60
2022/08/14 06:53:31;;;;;;;12.93;6.03;;;;;;;25.54;44.38;99651.13;5070896;28;20125;-60
2022/08/14 06:55:57;;;;;;;7.55;5.68;;;;;;;25.64;43.14;99655.38;5052895;28;20041;-60
2022/08/14 06:58:22;;;;;;;14.35;5.25;;;;;;;25.59;43.19;99649.03;5067072;28;20067;-60
2022/08/14 07:06:18;;;;;;;8.40;5.00;;;;;;;25.70;42.00;99648.59;5049443;28;20044;-62
2022/08/14 07:08:44;;;;;;;7.53;4.60;;;;;;;25.76;41.99;99652.69;5050511;28;20040;-60
2022/08/14 07:11:11;;;;;;;11.95;5.07;;;;;;;25.81;41.34;99653.28;5052174;28;20069;-60
2022/08/14 07:13:39;;;;;;;5.80;4.82;;;;;;;25.87;41.79;99648.50;5015836;28;20043;-60
2022/08/14 07:16:05;;;;;;;5.78;4.20;;;;;;;25.94;41.62;99648.75;5050801;28;20041;-61
2022/08/14 07:18:33;;;;;;;6.07;4.45;;;;;;;26.00;41.20;99644.72;5033892;28;20049;-60
2022/08/14 07:21:00;;;;;;;8.10;4.20;;;;;;;25.97;40.93;99650.00;5056542;28;20068;-60
2022/08/14 07:23:26;;;;;;;8.82;4.40;;;;;;;25.98;41.18;99646.16;5031300;28;20056;-61
2022/08/14 07:25:54;;;;;;;5.18;4.65;;;;;;;26.03;40.94;99637.78;5069432;28;20039;-59
2022/08/14 07:28:23;;;;;;;4.95;4.20;;;;;;;26.13;40.04;99639.31;5043453;28;20052;-62
2022/08/14 07:30:49;;;;;;;7.20;4.78;;;;;;;26.10;40.79;99650.84;5063289;28;20040;-61
2022/08/14 07:33:15;;;;;;;5.43;4.15;;;;;;;26.04;39.75;99642.91;5050377;28;20123;-61
2022/08/14 07:35:41;;;;;;;5.40;4.10;;;;;;;26.08;39.07;99644.94;5050364;28;20045;-64
2022/08/14 07:38:07;;;;;;;4.45;4.00;;;;;;;26.14;39.80;99641.69;5051078;28;20061;-62
2022/08/14 07:40:33;;;;;;;8.40;4.32;;;;;;;26.21;39.89;99643.88;5050265;28;20037;-68
2022/08/14 07:43:00;;;;;;;5.85;4.53;;;;;;;26.33;39.25;99643.91;5050371;28;20052;-62
2022/08/14 07:45:27;;;;;;;4.90;4.38;;;;;;;26.38;39.13;99645.59;5033537;28;20458;-61
2022/08/14 07:47:56;;;;;;;10.77;5.22;;;;;;;26.43;39.65;99642.66;5051834;28;20052;-62
2022/08/14 07:50:24;;;;;;;7.90;4.75;;;;;;;26.46;39.48;99644.69;5035989;28;20049;-61
2022/08/14 07:52:50;;;;;;;7.47;5.30;;;;;;;26.55;39.45;99633.75;5054771;28;20156;-64
2022/08/14 07:55:17;;;;;;;4.55;4.15;;;;;;;26.62;39.44;99640.22;5053862;28;20183;-64
2022/08/14 07:57:44;;;;;;;6.40;4.70;;;;;;;26.82;39.28;99643.19;5054147;28;20102;-60
2022/08/14 08:00:15;;;;;;;7.63;4.68;;;;;;;26.93;37.37;99642.38;5053084;28;20037;-62
2022/08/14 08:02:44;;;;;;;7.78;4.45;;;;;;;26.98;37.06;99640.59;5054456;28;20079;-63
2022/08/14 08:05:10;;;;;;;7.93;4.60;;;;;;;27.07;37.05;99638.53;5053644;28;20564;-62
2022/08/14 08:07:37;;;;;;;6.22;4.82;;;;;;;27.24;37.20;99638.31;5053808;28;20504;-61
2022/08/14 08:12:55;;;;;;;9.02;5.15;;;;;;;27.38;36.38;99646.91;5054166;28;20049;-61
2022/08/14 08:15:23;;;;;;;8.13;4.30;;;;;;;27.43;36.27;99645.06;5053998;28;20045;-61
2022/08/14 08:17:50;;;;;;;5.25;4.65;;;;;;;27.42;36.46;99646.22;5054200;28;20529;-61
2022/08/14 08:20:18;;;;;;;7.95;4.57;;;;;;;27.57;36.19;99645.50;5035662;28;20528;-63
2022/08/14 08:22:44;;;;;;;8.50;5.32;;;;;;;27.71;35.98;99642.38;5035962;28;20045;-60
2022/08/14 08:25:11;;;;;;;5.40;4.88;;;;;;;27.77;35.39;99646.47;5053620;28;20179;-61
2022/08/14 08:27:36;;;;;;;6.53;4.93;;;;;;;27.64;35.02;99642.97;5053954;28;20191;-61
2022/08/14 08:30:11;;;;;;;5.07;4.53;;;;;;;27.69;35.03;99637.28;5035932;28;20103;-61
2022/08/14 08:32:41;;;;;;;6.25;4.90;;;;;;;27.78;34.89;99639.88;5053771;28;20071;-62
2022/08/14 08:35:16;;;;;;;5.90;5.00;;;;;;;27.87;35.20;99639.75;5053279;28;20080;-61
2022/08/14 08:37:42;;;;;;;8.27;5.78;;;;;;;27.88;34.65;99642.09;5053707;28;20052;-61
2022/08/14 08:40:08;;;;;;;8.95;5.43;;;;;;;28.04;35.01;99634.00;5053179;28;20517;-62
2022/08/14 08:42:34;;;;;;;7.38;5.53;;;;;;;28.25;34.86;99650.13;5053415;28;20114;-62
2022/08/14 08:44:59;;;;;;;9.27;5.30;;;;;;;28.24;33.37;99641.16;5053157;28;20144;-61
2022/08/14 08:47:25;;;;;;;10.43;5.60;;;;;;;27.97;34.38;99642.78;5035047;28;20045;-62
2022/08/14 08:49:52;;;;;;;8.07;5.50;;;;;;;27.84;34.96;99642.00;5053024;28;20052;-62
2022/08/14 08:52:19;;;;;;;10.75;5.82;;;;;;;27.78;33.30;99637.13;5053456;28;20322;-62
2022/08/14 08:54:52;;;;;;;6.25;5.65;;;;;;;27.75;34.29;99637.84;5052909;28;20477;-61
2022/08/14 08:57:18;;;;;;;9.18;5.38;;;;;;;27.68;35.32;99640.34;5053138;28;20063;-61
2022/08/14 08:59:44;;;;;;;7.18;6.10;;;;;;;27.64;35.17;99630.13;5052067;28;20490;-62
2022/08/14 09:02:09;;;;;;;9.32;5.72;;;;;;;27.68;34.53;99624.81;5053280;28;20434;-60
2022/08/14 09:04:37;;;;;;;6.03;5.35;;;;;;;27.71;34.96;99623.31;5052954;28;20043;-62
2022/08/14 09:07:04;;;;;;;6.28;5.78;;;;;;;27.77;35.52;99628.19;5052905;28;20048;-62
2022/08/14 09:09:31;;;;;;;8.43;5.72;;;;;;;27.59;35.63;99629.59;5052653;28;20064;-62
2022/08/14 09:11:58;;;;;;;8.60;5.90;;;;;;;27.47;36.30;99624.19;5052902;28;20045;-62
2022/08/14 09:14:28;;;;;;;9.95;6.22;;;;;;;27.40;36.13;99627.50;5052742;28;20044;-62
2022/08/14 09:16:58;;;;;;;8.77;6.10;;;;;;;27.53;35.34;99617.34;5052951;28;20096;-61
2022/08/14 09:19:23;;;;;;;;;;;;;;;27.69;35.59;99629.13;5052985;28;20041;-61
2022/08/14 09:21:49;;;;;;;6.60;5.80;;;;;;;27.82;34.89;99627.94;5034691;28;19985;-62
2022/08/14 09:24:15;;;;;;;6.82;5.57;;;;;;;27.99;34.54;99623.34;5052482;28;20048;-63
2022/08/14 09:26:42;;;;;;;6.50;5.90;;;;;;;28.13;34.40;99620.22;5051326;28;20049;-63
2022/08/14 09:29:08;;;;;;;7.07;5.90;;;;;;;28.16;34.57;99622.22;5052260;28;20127;-62
2022/08/14 09:31:37;;;;;;;12.75;6.20;;;;;;;27.97;35.31;99620.97;5052664;28;20127;-61
2022/08/14 09:34:09;;;;;;;7.35;5.60;;;;;;;27.82;35.24;99617.03;5034941;28;20072;-60
2022/08/14 09:37:12;;;;;;;7.93;5.72;;;;;;;27.67;35.46;99611.53;5052470;28;20041;-61
2022/08/14 09:40:12;;;;;;;6.53;5.30;;;;;;;27.54;36.14;99608.84;5034340;28;20037;-63
2022/08/14 09:42:59;;;;;;;12.50;6.28;;;;;;;27.48;36.17;99623.06;5052562;28;20063;-61
2022/08/14 09:45:42;;;;;;;8.85;5.53;;;;;;;27.45;35.31;99610.94;5034476;28;20041;-62
2022/08/14 09:48:16;;;;;;;5.85;5.25;;;;;;;27.47;35.35;99607.84;5052440;28;20107;-62
2022/08/14 09:50:50;;;;;;;6.05;5.30;;;;;;;27.52;34.89;99616.56;5034077;28;20060;-62
2022/08/14 09:53:37;;;;;;;8.15;5.32;;;;;;;27.62;35.23;99613.38;5052401;28;20056;-61
2022/08/14 09:56:04;;;;;;;8.68;5.78;;;;;;;27.57;34.24;99615.53;5051744;28;20470;-62
2022/08/14 09:58:38;;;;;;;5.80;4.90;;;;;;;27.36;34.61;99611.06;5051768;28;20037;-62
2022/08/14 10:01:15;;;;;;;13.68;5.65;;;;;;;27.33;34.25;99606.31;5052077;28;20036;-62
2022/08/14 10:03:55;;;;;;;6.95;5.43;;;;;;;27.32;34.66;99610.16;5051972;28;20032;-60
2022/08/14 10:06:26;;;;;;;7.20;5.55;;;;;;;27.39;34.02;99602.22;5034130;28;20041;-62
2022/08/14 10:09:01;;;;;;;6.82;5.60;;;;;;;27.42;33.93;99602.66;5051548;28;20103;-61
2022/08/14 10:11:34;;;;;;;7.05;5.38;;;;;;;27.43;34.37;99606.97;5051475;28;20127;-63
2022/08/14 10:14:15;;;;;;;12.40;6.05;;;;;;;27.57;33.87;99604.66;5052002;28;20233;-62
2022/08/14 10:16:53;;;;;;;6.43;5.25;;;;;;;27.68;33.47;99605.75;5051377;28;20574;-61
2022/08/14 10:19:21;;;;;;;6.78;5.30;;;;;;;27.64;33.63;99607.56;5051713;28;20472;-61
2022/08/14 10:22:09;;;;;;;13.02;5.75;;;;;;;27.66;33.90;99608.03;5033735;28;20053;-63
2022/08/14 10:24:45;;;;;;;6.53;5.90;;;;;;;27.76;33.53;99598.56;5051310;28;20465;-60
2022/08/14 10:27:15;;;;;;;7.35;6.18;;;;;;;27.93;33.11;99611.09;5051308;28;20052;-61
2022/08/14 10:29:43;;;;;;;8.43;5.60;;;;;;;27.97;33.04;99611.97;5051738;28;20053;-61
2022/08/14 10:32:12;;;;;;;6.78;6.00;;;;;;;27.95;33.11;99615.06;5051241;28;20072;-61
2022/08/14 10:34:39;;;;;;;7.78;5.82;;;;;;;27.95;32.77;99614.28;5051602;28;20413;-60
2022/08/14 10:37:12;;;;;;;10.70;5.78;;;;;;;28.00;32.34;99612.09;5050242;28;20112;-61
2022/08/14 10:39:42;;;;;;;8.65;5.85;;;;;;;28.21;32.08;99600.97;5033300;28;20115;-61
2022/08/14 10:42:11;;;;;;;6.45;5.82;;;;;;;28.33;32.67;99602.81;5033698;28;20124;-62
2022/08/14 10:44:39;;;;;;;9.05;6.18;;;;;;;28.44;32.33;99597.66;5051294;28;20052;-62
2022/08/14 10:47:09;;;;;;;12.27;5.85;;;;;;;28.55;32.56;99592.47;5051258;28;20081;-62
2022/08/14 10:49:36;;;;;;;11.57;5.93;;;;;;;28.57;31.98;99601.88;5050889;28;20532;-62
2022/08/14 10:52:06;;;;;;;10.05;5.90;;;;;;;28.59;32.47;99596.88;5033415;28;20188;-62
2022/08/14 10:54:38;;;;;;;6.32;5.70;;;;;;;28.63;32.23;99602.41;5050877;28;20541;-62
2022/08/14 10:57:17;;;;;;;7.40;5.32;;;;;;;28.61;31.76;99597.28;5033427;28;20120;-62
2022/08/14 10:59:50;;;;;;;7.60;6.63;;;;;;;28.47;32.35;99588.75;5050968;28;20049;-61
2022/08/14 11:02:41;;;;;;;6.97;6.32;;;;;;;28.36;32.87;99595.88;5051423;28;20045;-63
2022/08/14 11:05:17;;;;;;;7.00;5.68;;;;;;;28.26;32.40;99599.91;5047905;28;20056;-63
2022/08/14 11:07:54;;;;;;;10.85;6.10;;;;;;;28.23;32.24;99597.88;5051332;28;20049;-62
2022/08/14 11:10:23;;;;;;;9.82;6.82;;;;;;;28.20;33.25;99601.31;5016831;28;20044;-61
2022/08/14 11:12:52;;;;;;;8.25;6.10;;;;;;;28.11;32.46;99597.97;5050880;28;20048;-61
2022/08/14 11:15:27;;;;;;;7.63;6.40;;;;;;;28.04;32.54;99596.63;5032972;28;20048;-61
2022/08/14 11:17:54;;;;;;;8.40;6.78;;;;;;;28.01;32.62;99600.06;5050611;28;20064;-61
2022/08/14 11:20:22;;;;;;;8.70;6.60;;;;;;;27.95;32.71;99595.22;5032796;28;20498;-63
2022/08/14 11:22:51;;;;;;;9.82;6.68;;;;;;;27.93;32.95;99586.59;5051082;28;20528;-62
2022/08/14 11:25:19;;;;;;;9.15;6.15;;;;;;;27.98;34.23;99591.78;5037143;28;20520;-62
2022/08/14 11:27:45;;;;;;;9.57;7.63;;;;;;;27.84;34.91;99589.47;5053406;28;20083;-62
2022/08/14 11:30:14;;;;;;;9.15;5.90;;;;;;;27.72;34.44;99589.50;5036705;28;20040;-62
2022/08/14 11:32:43;;;;;;;6.97;6.22;;;;;;;27.66;34.71;99594.41;5053363;28;20048;-62
2022/08/14 11:35:15;;;;;;;9.82;6.07;;;;;;;27.68;34.39;99594.84;5054769;28;20395;-62
2022/08/14 11:38:01;;;;;;;8.57;6.55;;;;;;;27.71;34.10;99587.91;5053537;28;20414;-61
2022/08/14 11:40:29;;;;;;;7.00;5.72;;;;;;;27.71;34.17;99586.00;5053182;28;20076;-61
2022/08/14 11:42:56;;;;;;;9.27;5.57;;;;;;;27.73;34.36;99583.69;5054849;28;20052;-62
2022/08/14 11:45:31;;;;;;;8.98;5.85;;;;;;;27.63;34.62;99587.72;5054477;28;20116;-61
2022/08/14 11:47:56;;;;;;;7.85;6.03;;;;;;;27.53;34.10;99590.94;5054126;28;20529;-62
2022/08/14 11:50:29;;;;;;;9.27;5.63;;;;;;;27.48;34.53;99582.22;5054251;28;20052;-62